Time;durP1;ratioP1;P1;durP2;ratioP2;P2;SDS_P1;SDS_P2;PMS_P1;PMS_P2;Temp;Humidity;BMP_temperature;BMP_pressure;BME280_temperature;BME280_humidity;BME280_pressure;Samples;Min_cycle;Max_cycle;Signal;HPM_P1;HPM_P2
2023/12/24 00:01:14;;;;;;;0.80;0.80;;;;;;;10.28;60.06;95858.88;4985552;28;20058;-67
2023/12/24 00:03:41;;;;;;;0.80;0.80;;;;;;;11.14;59.85;95993.25;5000855;28;20065;-68
2023/12/24 00:06:08;;;;;;;0.88;0.88;;;;;;;11.19;59.49;95984.53;4985614;28;20065;-68
2023/12/24 00:08:36;;;;;;;0.80;0.80;;;;;;;11.20;58.82;95986.09;4969387;28;20545;-67
2023/12/24 00:11:04;;;;;;;0.90;0.90;;;;;;;11.22;58.36;96005.91;4965918;28;20058;-67
2023/12/24 00:13:34;;;;;;;0.98;0.98;;;;;;;11.20;58.12;95980.56;4980601;28;20085;-68
2023/12/24 00:16:01;;;;;;;0.90;0.90;;;;;;;11.28;57.62;95976.56;4980841;28;20429;-67
2023/12/24 00:18:28;;;;;;;0.90;0.90;;;;;;;11.43;57.14;96005.84;4966285;28;20054;-68
2023/12/24 00:20:55;;;;;;;0.80;0.80;;;;;;;11.35;56.13;95991.19;4980888;28;20070;-68
2023/12/24 00:23:22;;;;;;;0.90;0.90;;;;;;;11.23;55.98;95947.28;4966203;28;20065;-68
2023/12/24 00:25:49;;;;;;;0.90;0.90;;;;;;;11.62;55.74;96019.22;4983806;28;20489;-67
2023/12/24 00:28:16;;;;;;;0.90;0.90;;;;;;;11.67;55.68;96021.63;4984958;28;20054;-67
2023/12/24 00:30:44;;;;;;;0.90;0.90;;;;;;;11.09;55.63;95990.88;4985173;28;20592;-68
2023/12/24 00:33:11;;;;;;;0.90;0.90;;;;;;;11.48;55.77;95997.91;4985017;28;20050;-67
2023/12/24 00:35:37;;;;;;;0.90;0.90;;;;;;;11.72;54.70;96040.63;5000145;28;20433;-69
2023/12/24 00:38:04;;;;;;;0.80;0.80;;;;;;;11.65;54.24;96007.38;4985083;28;20050;-69
2023/12/24 00:40:31;;;;;;;0.90;0.90;;;;;;;11.82;54.24;96037.03;4985198;28;20080;-66
2023/12/24 00:42:58;;;;;;;0.90;0.90;;;;;;;11.87;53.04;96048.50;4985074;28;20062;-68
2023/12/24 00:45:25;;;;;;;0.80;0.80;;;;;;;11.95;53.03;96032.59;4984708;28;20543;-67
2023/12/24 00:47:52;;;;;;;0.90;0.90;;;;;;;11.43;53.92;96042.66;4985252;28;20471;-67
2023/12/24 00:50:19;;;;;;;0.80;0.80;;;;;;;11.87;53.10;96036.63;4983680;28;20080;-67
2023/12/24 00:52:46;;;;;;;0.90;0.90;;;;;;;11.98;52.80;96048.47;4966941;28;20057;-68
2023/12/24 00:55:13;;;;;;;0.90;0.90;;;;;;;12.01;52.82;96053.22;4964054;28;20050;-68
2023/12/24 00:57:40;;;;;;;1.00;1.00;;;;;;;12.06;52.26;96056.34;4965284;28;20611;-68
2023/12/24 01:00:08;;;;;;;0.85;0.85;;;;;;;12.12;52.62;96048.41;4965758;28;20438;-68
2023/12/24 01:02:34;;;;;;;0.80;0.80;;;;;;;12.05;52.14;96051.19;4964246;28;20142;-68
2023/12/24 01:05:02;;;;;;;0.90;0.90;;;;;;;11.42;51.93;95949.59;4980585;28;20133;-68
2023/12/24 01:07:28;;;;;;;0.93;0.93;;;;;;;12.12;51.75;96062.28;4965121;28;20063;-69
2023/12/24 01:09:55;;;;;;;0.90;0.90;;;;;;;12.16;51.92;96082.47;4965891;28;20061;-68
2023/12/24 01:12:22;;;;;;;0.95;0.95;;;;;;;12.08;51.55;96078.13;4963955;28;20058;-67
2023/12/24 01:14:49;;;;;;;0.80;0.80;;;;;;;12.10;51.79;96070.22;4965816;28;20057;-68
2023/12/24 01:17:15;;;;;;;0.90;0.90;;;;;;;12.03;53.41;96059.13;4965219;28;20109;-68
2023/12/24 01:19:43;;;;;;;0.90;0.90;;;;;;;12.03;52.44;96067.44;4965553;28;20054;-67
2023/12/24 01:22:10;;;;;;;0.90;0.90;;;;;;;11.84;52.00;96037.41;4964769;28;20514;-68
2023/12/24 01:24:37;;;;;;;0.90;0.90;;;;;;;12.08;52.15;96067.03;4970956;28;20576;-67
2023/12/24 01:27:04;;;;;;;0.90;0.90;;;;;;;12.08;51.91;96081.72;4988080;28;20590;-67
2023/12/24 01:29:31;;;;;;;0.90;0.90;;;;;;;12.10;51.25;96076.56;4988792;28;20108;-67
2023/12/24 01:31:58;;;;;;;0.98;0.98;;;;;;;12.13;51.21;96094.38;4986991;28;20050;-68
2023/12/24 01:34:25;;;;;;;0.90;0.90;;;;;;;12.02;51.02;96100.00;4986870;28;20100;-67
2023/12/24 01:36:52;;;;;;;0.90;0.90;;;;;;;11.99;51.13;96100.78;4987960;28;20505;-68
2023/12/24 01:39:20;;;;;;;0.80;0.80;;;;;;;11.90;51.26;96092.09;4986963;28;20058;-68
2023/12/24 01:41:47;;;;;;;0.80;0.80;;;;;;;11.88;51.19;96116.69;4986653;28;20077;-69
2023/12/24 01:44:14;;;;;;;0.90;0.90;;;;;;;10.96;51.41;95960.03;4986845;28;20046;-67
2023/12/24 01:46:41;;;;;;;0.80;0.80;;;;;;;11.54;51.59;96056.53;4988175;28;20068;-68
2023/12/24 01:49:08;;;;;;;0.90;0.90;;;;;;;11.90;51.25;96119.06;4988167;28;20050;-68
2023/12/24 01:51:35;;;;;;;0.90;0.90;;;;;;;11.93;51.01;96113.47;4987985;28;20046;-68
2023/12/24 01:54:02;;;;;;;1.00;1.00;;;;;;;11.87;50.89;96081.03;4988074;28;20062;-68
2023/12/24 01:56:32;;;;;;;0.90;0.90;;;;;;;11.91;50.71;96121.44;4987417;28;20592;-68
2023/12/24 01:58:59;;;;;;;0.90;0.90;;;;;;;11.58;50.43;96051.75;4988305;28;20050;-67
2023/12/24 02:01:27;;;;;;;0.90;0.90;;;;;;;11.67;50.13;96077.09;4988096;28;20054;-66
2023/12/24 02:03:55;;;;;;;0.90;0.90;;;;;;;11.94;50.06;96155.91;4987748;28;20054;-67
2023/12/24 02:06:24;;;;;;;0.80;0.80;;;;;;;11.08;49.95;95994.84;5002618;28;20054;-68
2023/12/24 02:08:51;;;;;;;1.00;1.00;;;;;;;11.91;49.94;96153.94;4986327;28;20138;-67
2023/12/24 02:11:20;;;;;;;0.90;0.90;;;;;;;11.91;49.99;96145.59;4986320;28;20062;-67
2023/12/24 02:13:48;;;;;;;0.90;0.90;;;;;;;10.92;49.81;96013.88;4987787;28;20066;-66
2023/12/24 02:16:20;;;;;;;0.80;0.80;;;;;;;11.85;49.99;96150.00;4987590;28;20053;-67
2023/12/24 02:18:48;;;;;;;0.90;0.90;;;;;;;11.89;50.54;96156.31;5002471;28;20058;-67
2023/12/24 02:21:15;;;;;;;0.90;0.90;;;;;;;11.80;50.38;96159.53;4987418;28;20058;-67
2023/12/24 02:23:41;;;;;;;0.90;0.90;;;;;;;11.50;50.81;96120.31;4987525;28;20444;-68
2023/12/24 02:26:35;;;;;;;0.90;0.90;;;;;;;11.63;51.35;96165.09;4986848;28;20418;-68
2023/12/24 02:29:10;;;;;;;0.80;0.80;;;;;;;10.73;51.63;96039.19;4987927;28;20086;-66
2023/12/24 02:31:41;;;;;;;0.80;0.80;;;;;;;11.47;51.70;96195.19;4987421;28;20062;-67
2023/12/24 02:34:13;;;;;;;0.90;0.90;;;;;;;11.28;51.46;96129.84;4987660;28;20554;-66
2023/12/24 02:36:40;;;;;;;0.80;0.80;;;;;;;11.43;51.66;96167.44;4986876;28;20477;-67
2023/12/24 02:39:07;;;;;;;0.90;0.90;;;;;;;11.33;52.59;96134.19;4987399;28;20061;-66
2023/12/24 02:41:34;;;;;;;0.90;0.90;;;;;;;11.01;52.83;96131.41;5002258;28;20064;-68
2023/12/24 02:44:01;;;;;;;0.90;0.90;;;;;;;10.68;52.50;96077.16;4987532;28;20054;-67
2023/12/24 02:46:28;;;;;;;0.90;0.90;;;;;;;10.71;51.95;96081.13;4987126;28;20054;-67
2023/12/24 02:48:54;;;;;;;0.77;0.77;;;;;;;11.48;51.89;96194.78;4959925;28;20079;-67
2023/12/24 02:51:21;;;;;;;0.90;0.90;;;;;;;11.38;52.07;96230.84;4998011;28;20054;-68
2023/12/24 02:53:48;;;;;;;0.90;0.90;;;;;;;11.25;52.40;96177.75;4987420;28;20073;-68
2023/12/24 02:56:15;;;;;;;0.90;0.90;;;;;;;10.67;52.84;96086.66;5001754;28;20162;-68
2023/12/24 02:58:43;;;;;;;0.80;0.80;;;;;;;11.47;52.16;96192.41;4987163;28;21444;-68
2023/12/24 03:01:10;;;;;;;0.80;0.80;;;;;;;11.53;52.37;96215.78;4986337;28;20058;-68
2023/12/24 03:03:37;;;;;;;0.90;0.90;;;;;;;11.37;52.36;96195.97;4986949;28;20113;-69
2023/12/24 03:06:04;;;;;;;0.90;0.90;;;;;;;11.50;52.74;96213.81;4986730;28;20441;-69
2023/12/24 03:08:31;;;;;;;0.90;0.90;;;;;;;11.06;52.92;96169.84;4986782;28;20133;-66
2023/12/24 03:10:58;;;;;;;0.90;0.90;;;;;;;11.24;53.32;96230.84;4986595;28;20085;-67
2023/12/24 03:13:24;;;;;;;0.90;0.90;;;;;;;10.63;53.09;96130.19;4986559;28;20429;-66
2023/12/24 03:15:51;;;;;;;0.80;0.80;;;;;;;10.57;53.12;96114.34;5001754;28;20073;-68
2023/12/24 03:18:18;;;;;;;0.80;0.80;;;;;;;11.26;53.54;96228.44;4977756;28;20429;-67
2023/12/24 03:20:45;;;;;;;0.80;0.80;;;;;;;11.16;53.61;96223.69;4967101;28;20069;-67
2023/12/24 03:23:12;;;;;;;0.90;0.90;;;;;;;11.11;53.88;96215.75;4967071;28;20073;-68
2023/12/24 03:25:38;;;;;;;0.80;0.80;;;;;;;11.11;53.13;96235.94;4976669;28;20503;-68
2023/12/24 03:28:06;;;;;;;0.90;0.90;;;;;;;11.15;53.56;96230.41;4986557;28;20543;-68
2023/12/24 03:30:33;;;;;;;0.80;0.80;;;;;;;11.16;53.21;96241.09;4986720;28;20046;-67
2023/12/24 03:32:59;;;;;;;0.80;0.80;;;;;;;10.61;53.25;96187.94;4986470;28;20054;-68
2023/12/24 03:35:26;;;;;;;0.90;0.90;;;;;;;11.24;53.14;96248.22;4986136;28;20056;-68
2023/12/24 03:37:53;;;;;;;0.88;0.88;;;;;;;11.22;53.18;96245.09;4986313;28;20150;-68
2023/12/24 03:40:20;;;;;;;0.80;0.80;;;;;;;10.92;52.73;96213.34;4986244;28;20069;-67
2023/12/24 03:42:46;;;;;;;0.80;0.80;;;;;;;10.93;52.39;96203.84;4986018;28;20056;-68
2023/12/24 03:45:13;;;;;;;0.80;0.80;;;;;;;11.27;52.77;96235.59;4986262;28;20076;-66
2023/12/24 03:47:40;;;;;;;0.90;0.90;;;;;;;10.76;52.21;96158.31;4985617;28;20222;-67
2023/12/24 03:50:07;;;;;;;0.90;0.90;;;;;;;11.29;52.37;96250.63;4986490;28;20050;-68
2023/12/24 03:52:34;;;;;;;0.90;0.90;;;;;;;11.30;51.83;96254.97;4984167;28;20097;-67
2023/12/24 03:55:00;;;;;;;0.80;0.80;;;;;;;11.32;52.08;96232.41;5001058;28;20054;-67
2023/12/24 03:57:27;;;;;;;0.80;0.80;;;;;;;11.25;51.91;96243.50;4985389;28;20054;-67
2023/12/24 03:59:54;;;;;;;0.80;0.80;;;;;;;11.29;51.88;96235.97;4986352;28;20085;-66
2023/12/24 04:02:24;;;;;;;0.80;0.80;;;;;;;11.31;51.95;96244.69;4984064;28;20069;-67
2023/12/24 04:04:51;;;;;;;0.82;0.82;;;;;;;10.85;52.13;96163.44;4984094;28;20136;-68
2023/12/24 04:07:18;;;;;;;0.80;0.80;;;;;;;11.26;52.15;96233.97;4985263;28;20073;-68
2023/12/24 04:09:45;;;;;;;0.80;0.80;;;;;;;11.30;51.97;96252.19;4985886;28;20560;-67
2023/12/24 04:12:11;;;;;;;0.80;0.80;;;;;;;11.17;52.44;96247.44;5000362;28;20061;-66
2023/12/24 04:14:39;;;;;;;0.90;0.90;;;;;;;11.22;51.93;96241.50;4985870;28;20104;-68
2023/12/24 04:17:06;;;;;;;0.80;0.80;;;;;;;11.07;51.95;96214.94;4985360;28;20046;-67
2023/12/24 04:19:33;;;;;;;0.82;0.82;;;;;;;11.32;51.63;96251.81;4985677;28;20097;-68
2023/12/24 04:21:59;;;;;;;0.90;0.90;;;;;;;11.39;51.86;96280.34;4985190;28;20153;-68
2023/12/24 04:24:26;;;;;;;0.85;0.85;;;;;;;10.57;51.65;96170.50;4986143;28;20054;-69
2023/12/24 04:26:53;;;;;;;0.80;0.80;;;;;;;11.22;52.41;96266.47;4999990;28;20137;-69
2023/12/24 04:29:20;;;;;;;0.88;0.88;;;;;;;11.19;51.22;96256.16;5000339;28;20061;-68
2023/12/24 04:31:46;;;;;;;0.88;0.88;;;;;;;11.10;51.60;96259.31;5000084;28;20082;-68
2023/12/24 04:34:13;;;;;;;0.85;0.85;;;;;;;11.37;51.66;96295.78;4985572;28;20461;-68
2023/12/24 04:36:40;;;;;;;0.80;0.80;;;;;;;11.32;51.09;96312.78;4985457;28;20050;-67
2023/12/24 04:39:07;;;;;;;0.90;0.90;;;;;;;11.41;50.85;96307.69;4985242;28;20130;-68
2023/12/24 04:41:34;;;;;;;0.90;0.90;;;;;;;11.24;50.99;96286.28;4999928;28;20054;-66
2023/12/24 04:44:03;;;;;;;0.80;0.80;;;;;;;11.38;51.30;96319.56;4984896;28;20434;-67
2023/12/24 04:46:30;;;;;;;0.80;0.80;;;;;;;11.36;51.32;96321.94;4984997;28;20533;-66
2023/12/24 04:48:57;;;;;;;0.90;0.90;;;;;;;11.32;51.27;96315.56;4984802;28;20054;-66
2023/12/24 04:51:24;;;;;;;0.90;0.90;;;;;;;11.25;51.05;96321.13;4999589;28;20067;-67
2023/12/24 04:53:50;;;;;;;0.80;0.80;;;;;;;11.26;50.86;96342.09;4985044;28;20062;-68
2023/12/24 04:56:21;;;;;;;0.80;0.80;;;;;;;11.31;50.73;96358.34;4984900;28;20058;-66
2023/12/24 04:58:48;;;;;;;0.80;0.80;;;;;;;11.39;50.55;96366.31;4984666;28;20058;-67
2023/12/24 05:01:16;;;;;;;0.80;0.80;;;;;;;11.35;50.60;96350.84;4999137;28;20050;-66
2023/12/24 05:03:43;;;;;;;0.90;0.90;;;;;;;11.32;50.11;96365.47;4984671;28;20133;-66
2023/12/24 05:06:12;;;;;;;0.88;0.88;;;;;;;11.33;50.01;96361.53;4984501;28;20060;-67
2023/12/24 05:08:42;;;;;;;0.90;0.90;;;;;;;11.42;49.75;96368.31;4985008;28;20168;-67
2023/12/24 05:11:09;;;;;;;0.70;0.70;;;;;;;11.46;50.19;96371.09;4984616;28;20054;-68
2023/12/24 05:13:36;;;;;;;0.80;0.80;;;;;;;11.45;49.83;96375.84;4985209;28;20058;-67
2023/12/24 05:16:04;;;;;;;0.80;0.80;;;;;;;11.39;49.50;96355.22;4984601;28;20060;-66
2023/12/24 05:18:35;;;;;;;0.90;0.90;;;;;;;11.04;49.70;96309.94;4984807;28;20068;-67
2023/12/24 05:21:02;;;;;;;0.93;0.93;;;;;;;11.03;50.21;96302.84;4998984;28;20050;-67
2023/12/24 05:23:29;;;;;;;0.90;0.90;;;;;;;11.42;49.96;96376.63;4999621;28;20050;-68
2023/12/24 05:25:56;;;;;;;0.90;0.90;;;;;;;11.30;49.69;96363.09;4984102;28;20055;-67
2023/12/24 05:28:23;;;;;;;0.90;0.90;;;;;;;11.41;49.66;96377.78;4999117;28;20050;-67
2023/12/24 05:30:49;;;;;;;0.90;0.90;;;;;;;11.01;49.70;96319.06;4984650;28;20059;-67
2023/12/24 05:33:16;;;;;;;0.90;0.90;;;;;;;11.27;49.92;96374.97;4984624;28;20050;-68
2023/12/24 05:35:43;;;;;;;0.80;0.80;;;;;;;11.30;49.99;96401.91;4983044;28;20512;-66
2023/12/24 05:38:10;;;;;;;0.80;0.80;;;;;;;11.31;49.65;96405.50;4984142;28;20422;-66
2023/12/24 05:40:37;;;;;;;0.80;0.80;;;;;;;11.37;49.90;96406.69;4982944;28;20062;-67
2023/12/24 05:43:04;;;;;;;0.80;0.80;;;;;;;9.83;49.82;96219.16;4983915;28;20474;-68
2023/12/24 05:45:33;;;;;;;0.90;0.90;;;;;;;10.72;49.38;96354.16;4984650;28;20050;-67
2023/12/24 05:48:00;;;;;;;0.90;0.90;;;;;;;11.40;49.61;96422.53;4999296;28;20060;-69
2023/12/24 05:50:27;;;;;;;0.85;0.85;;;;;;;11.41;49.68;96424.16;4984626;28;20046;-68
2023/12/24 05:52:54;;;;;;;0.88;0.88;;;;;;;11.43;49.39;96421.78;4984205;28;20054;-67
2023/12/24 05:55:21;;;;;;;0.80;0.80;;;;;;;11.46;48.79;96440.41;4984075;28;20429;-68
2023/12/24 05:57:48;;;;;;;0.90;0.90;;;;;;;11.41;48.51;96419.38;4982238;28;20418;-68
2023/12/24 06:00:15;;;;;;;0.80;0.80;;;;;;;11.17;49.26;96402.66;4983845;28;20070;-68
2023/12/24 06:02:42;;;;;;;0.90;0.90;;;;;;;11.43;48.75;96427.34;4983445;28;20054;-68
2023/12/24 06:05:09;;;;;;;0.90;0.90;;;;;;;11.22;48.09;96380.91;4983938;28;20483;-68
2023/12/24 06:07:36;;;;;;;0.88;0.88;;;;;;;11.56;48.52;96423.00;4983690;28;20490;-67
2023/12/24 06:10:04;;;;;;;0.90;0.90;;;;;;;11.53;48.00;96419.03;4984229;28;20077;-68
2023/12/24 06:12:30;;;;;;;0.80;0.80;;;;;;;10.48;47.68;96255.91;4986568;28;20060;-67
2023/12/24 06:14:58;;;;;;;0.90;0.90;;;;;;;11.60;47.84;96415.50;4986364;28;20051;-67
2023/12/24 06:17:24;;;;;;;0.90;0.90;;;;;;;10.95;47.62;96304.00;5002179;28;20140;-67
2023/12/24 06:19:52;;;;;;;0.90;0.90;;;;;;;11.35;47.41;96375.81;4988093;28;20061;-68
2023/12/24 06:22:19;;;;;;;0.80;0.80;;;;;;;11.86;47.37;96434.59;4987122;28;20054;-67
2023/12/24 06:24:45;;;;;;;0.98;0.98;;;;;;;11.88;47.26;96432.25;4987792;28;20050;-68
2023/12/24 06:27:12;;;;;;;0.88;0.88;;;;;;;11.86;47.51;96429.06;4986925;28;20137;-67
2023/12/24 06:29:39;;;;;;;0.90;0.90;;;;;;;11.87;47.03;96450.09;4987087;28;20073;-69
2023/12/24 06:32:06;;;;;;;0.90;0.90;;;;;;;11.86;47.08;96435.41;4987444;28;20138;-67
2023/12/24 06:34:33;;;;;;;0.80;0.80;;;;;;;12.05;47.05;96431.47;4987687;28;20058;-69
2023/12/24 06:36:59;;;;;;;0.80;0.80;;;;;;;12.04;47.03;96438.22;5002159;28;20671;-68
2023/12/24 06:39:26;;;;;;;0.93;0.93;;;;;;;12.20;47.25;96446.97;4987435;28;20412;-67
2023/12/24 06:41:54;;;;;;;0.90;0.90;;;;;;;11.96;46.78;96439.41;5001890;28;20054;-67
2023/12/24 06:44:22;;;;;;;0.90;0.90;;;;;;;12.28;46.77;96456.91;4987533;28;20050;-69
2023/12/24 06:46:49;;;;;;;0.90;0.90;;;;;;;11.37;46.74;96329.84;5001900;28;20050;-68
2023/12/24 06:49:16;;;;;;;0.90;0.90;;;;;;;12.33;46.37;96470.38;4987250;28;20060;-67
2023/12/24 06:51:43;;;;;;;1.00;1.00;;;;;;;12.19;46.04;96426.72;4986269;28;20054;-66
2023/12/24 06:54:10;;;;;;;0.90;0.90;;;;;;;12.43;46.53;96464.03;4987513;28;20064;-67
2023/12/24 06:56:36;;;;;;;0.95;0.95;;;;;;;11.87;46.38;96380.72;4986797;28;20054;-69
2023/12/24 06:59:03;;;;;;;1.00;1.00;;;;;;;12.59;46.09;96483.09;4987228;28;20497;-68
2023/12/24 07:01:31;;;;;;;0.90;0.90;;;;;;;12.47;45.94;96459.25;5001323;28;20113;-68
2023/12/24 07:03:58;;;;;;;0.90;0.90;;;;;;;12.00;45.57;96362.47;4986854;28;20046;-66
2023/12/24 07:06:24;;;;;;;0.95;0.95;;;;;;;12.32;46.22;96429.09;5001050;28;20052;-68
2023/12/24 07:08:51;;;;;;;0.98;0.98;;;;;;;12.67;45.61;96468.81;4987059;28;20050;-67
2023/12/24 07:11:19;;;;;;;1.00;1.00;;;;;;;12.58;46.17;96437.84;4986612;28;20743;-67
2023/12/24 07:13:47;;;;;;;0.90;0.90;;;;;;;12.69;45.90;96488.66;4986259;28;20081;-68
2023/12/24 07:16:14;;;;;;;1.10;1.10;;;;;;;11.62;46.11;96329.88;4986738;28;20073;-67
2023/12/24 07:18:40;;;;;;;0.90;0.90;;;;;;;12.57;45.89;96502.94;4985056;28;20440;-66
2023/12/24 07:21:07;;;;;;;0.82;0.82;;;;;;;12.43;46.24;96508.47;4986667;28;20520;-67
2023/12/24 07:23:34;;;;;;;0.98;0.98;;;;;;;12.22;46.38;96458.44;5000128;28;20155;-68
2023/12/24 07:26:01;;;;;;;0.90;0.90;;;;;;;12.31;46.79;96497.75;4986042;28;20062;-68
2023/12/24 07:28:28;;;;;;;1.00;1.00;;;;;;;12.25;46.49;96490.97;5001022;28;20129;-68
2023/12/24 07:30:55;;;;;;;0.98;0.98;;;;;;;12.50;46.73;96530.72;4986662;28;20050;-68
2023/12/24 07:33:22;;;;;;;0.90;0.90;;;;;;;12.00;46.74;96457.63;4986271;28;20513;-68
2023/12/24 07:35:49;;;;;;;1.00;1.00;;;;;;;12.42;46.77;96528.31;4986040;28;20058;-68
2023/12/24 07:38:16;;;;;;;0.90;0.90;;;;;;;12.34;47.17;96537.81;5000809;28;20058;-67
2023/12/24 07:40:43;;;;;;;1.00;1.00;;;;;;;12.30;47.38;96535.03;4986025;28;20453;-67
2023/12/24 07:43:10;;;;;;;0.93;0.93;;;;;;;11.81;47.62;96473.84;5000763;28;20089;-68
2023/12/24 07:45:36;;;;;;;1.00;1.00;;;;;;;12.17;47.74;96512.41;4984626;28;20066;-67
2023/12/24 07:48:04;;;;;;;0.90;0.90;;;;;;;12.39;47.29;96540.22;5000279;28;20058;-67
2023/12/24 07:50:30;;;;;;;1.00;1.00;;;;;;;12.34;47.38;96502.53;4985851;28;20486;-69
2023/12/24 07:52:57;;;;;;;1.00;1.00;;;;;;;12.63;47.49;96531.91;4985735;28;20058;-67
2023/12/24 07:55:24;;;;;;;1.00;1.00;;;;;;;12.52;47.31;96545.00;4985947;28;20057;-66
2023/12/24 07:57:51;;;;;;;0.90;0.90;;;;;;;12.50;47.52;96552.13;4985991;28;20058;-67
2023/12/24 08:00:18;;;;;;;1.00;1.00;;;;;;;12.44;47.00;96556.50;5000729;28;20179;-67
2023/12/24 08:02:44;;;;;;;1.00;1.00;;;;;;;12.51;47.27;96559.28;4984318;28;20739;-68
2023/12/24 08:05:11;;;;;;;0.90;0.90;;;;;;;12.30;47.77;96521.16;5000518;28;20468;-68
2023/12/24 08:07:38;;;;;;;1.00;1.00;;;;;;;12.06;48.36;96521.91;4985235;28;20066;-67
2023/12/24 08:10:07;;;;;;;0.98;0.98;;;;;;;12.34;48.26;96577.50;4986126;28;20064;-68
2023/12/24 08:12:34;;;;;;;0.98;0.98;;;;;;;11.82;48.87;96495.63;4985559;28;20058;-68
2023/12/24 08:15:01;;;;;;;0.93;0.93;;;;;;;12.40;48.45;96567.59;4985371;28;20065;-66
2023/12/24 08:17:28;;;;;;;0.90;0.90;;;;;;;12.16;48.02;96513.59;4985247;28;20043;-69
2023/12/24 08:19:55;;;;;;;0.90;0.90;;;;;;;12.78;47.80;96564.09;4985844;28;20054;-67
2023/12/24 08:22:23;;;;;;;1.00;1.00;;;;;;;12.99;47.25;96586.31;4999908;28;20093;-68
2023/12/24 08:24:50;;;;;;;0.90;0.90;;;;;;;12.86;47.79;96543.44;4968593;28;20050;-68
2023/12/24 08:27:16;;;;;;;1.10;1.10;;;;;;;13.00;47.39;96573.22;4975540;28;20440;-69
2023/12/24 08:29:43;;;;;;;1.00;1.00;;;;;;;11.40;47.45;96317.97;4965975;28;20061;-67
2023/12/24 08:32:10;;;;;;;1.05;1.05;;;;;;;13.00;47.54;96599.06;4964394;28;20059;-68
2023/12/24 08:34:37;;;;;;;1.00;1.00;;;;;;;12.96;47.43;96592.66;4965943;28;20073;-66
2023/12/24 08:37:04;;;;;;;0.90;0.90;;;;;;;13.04;47.44;96566.47;4980262;28;20062;-67
2023/12/24 08:39:31;;;;;;;1.00;1.00;;;;;;;13.08;47.40;96550.63;4965741;28;20450;-67
2023/12/24 08:41:57;;;;;;;1.00;1.00;;;;;;;13.09;46.96;96557.75;4965444;28;20142;-68
2023/12/24 08:44:27;;;;;;;1.00;1.00;;;;;;;13.15;46.79;96558.94;4965812;28;20137;-68
2023/12/24 08:46:54;;;;;;;0.95;0.95;;;;;;;13.22;46.56;96547.00;4965916;28;20057;-67
2023/12/24 08:49:21;;;;;;;1.00;1.00;;;;;;;13.25;46.92;96555.34;4965803;28;20058;-69
2023/12/24 08:51:48;;;;;;;1.00;1.00;;;;;;;13.28;46.76;96560.13;4965488;28;20050;-67
2023/12/24 08:54:16;;;;;;;1.00;1.00;;;;;;;13.11;46.49;96538.69;4965684;28;20058;-67
2023/12/24 08:56:42;;;;;;;1.00;1.00;;;;;;;13.38;46.46;96548.19;4965169;28;20137;-66
2023/12/24 08:59:09;;;;;;;1.02;1.02;;;;;;;13.42;46.71;96560.09;4965807;28;20418;-68
2023/12/24 09:01:40;;;;;;;1.00;1.00;;;;;;;13.16;45.94;96512.47;4965388;28;20050;-67
2023/12/24 09:04:07;;;;;;;1.00;1.00;;;;;;;13.52;46.31;96542.59;4980308;28;20061;-67
2023/12/24 09:06:37;;;;;;;1.10;1.10;;;;;;;13.19;45.89;96464.38;4964883;28;20535;-66
2023/12/24 09:09:04;;;;;;;1.10;1.10;;;;;;;13.87;45.68;96541.69;4965427;28;20054;-68
2023/12/24 09:11:31;;;;;;;1.08;1.08;;;;;;;13.95;45.61;96531.28;4965698;28;20126;-68
2023/12/24 09:13:58;;;;;;;1.10;1.10;;;;;;;14.02;45.00;96497.84;4980018;28;20050;-67
2023/12/24 09:16:25;;;;;;;0.95;0.95;;;;;;;13.52;44.83;96413.78;4965081;28;20529;-68
2023/12/24 09:18:52;;;;;;;1.20;1.20;;;;;;;14.06;45.47;96499.41;4965267;28;20063;-67
2023/12/24 09:21:19;;;;;;;1.02;1.02;;;;;;;13.99;45.26;96505.00;4965220;28;20492;-68
2023/12/24 09:23:46;;;;;;;1.00;1.00;;;;;;;13.98;44.75;96502.63;4965137;28;20053;-68
2023/12/24 09:26:13;;;;;;;1.17;1.17;;;;;;;13.89;44.79;96463.31;4977280;28;20057;-69
2023/12/24 09:28:39;;;;;;;1.10;1.10;;;;;;;14.15;44.72;96473.88;4999482;28;20056;-67
2023/12/24 09:31:06;;;;;;;1.10;1.10;;;;;;;14.12;44.69;96477.50;4984448;28;20057;-68
2023/12/24 09:33:33;;;;;;;1.10;1.10;;;;;;;14.35;44.47;96489.72;4975855;28;20050;-67
2023/12/24 09:36:01;;;;;;;1.13;1.13;;;;;;;14.45;44.37;96494.44;4984391;28;20137;-68
2023/12/24 09:38:28;;;;;;;1.23;1.23;;;;;;;14.06;43.63;96443.72;4984547;28;20054;-69
2023/12/24 09:40:55;;;;;;;1.23;1.23;;;;;;;14.56;43.98;96472.84;4999221;28;20508;-68
2023/12/24 09:43:22;;;;;;;1.30;1.30;;;;;;;14.34;43.51;96439.97;4998984;28;20315;-67
2023/12/24 09:45:48;;;;;;;1.20;1.20;;;;;;;14.99;42.60;96484.44;4985290;28;20517;-69
2023/12/24 09:48:15;;;;;;;1.30;1.30;;;;;;;13.58;42.21;96193.13;4988031;28;20157;-68
2023/12/24 09:50:42;;;;;;;1.50;1.50;;;;;;;15.39;42.15;96460.53;4987952;28;20753;-68
2023/12/24 09:53:12;;;;;;;1.20;1.20;;;;;;;15.47;42.10;96448.09;4987951;28;20055;-69
2023/12/24 09:55:39;;;;;;;1.30;1.30;;;;;;;15.26;41.66;96393.28;5003508;28;20058;-68
2023/12/24 09:58:06;;;;;;;1.30;1.30;;;;;;;15.64;41.12;96459.06;4988283;28;20055;-68
2023/12/24 10:00:33;;;;;;;1.40;1.40;;;;;;;14.92;41.61;96333.91;4988557;28;20236;-68
2023/12/24 10:03:00;;;;;;;1.30;1.30;;;;;;;15.81;41.22;96413.34;4987203;28;20513;-68
2023/12/24 10:05:27;;;;;;;1.38;1.38;;;;;;;15.60;41.29;96416.41;4987977;28;20104;-68
2023/12/24 10:07:54;;;;;;;1.30;1.30;;;;;;;16.05;41.45;96456.91;4987577;28;20066;-69
2023/12/24 10:10:31;;;;;;;1.55;1.55;;;;;;;16.27;41.15;96472.16;4986504;28;20061;-66
2023/12/24 10:13:05;;;;;;;1.50;1.50;;;;;;;16.50;40.55;96455.47;4986210;28;20587;-67
2023/12/24 10:15:32;;;;;;;1.65;1.65;;;;;;;16.42;40.26;96428.03;4986519;28;20046;-67
2023/12/24 10:18:19;;;;;;;1.55;1.55;;;;;;;16.57;39.49;96449.78;4987492;28;20057;-68
2023/12/24 10:20:47;;;;;;;1.50;1.50;;;;;;;16.45;40.11;96436.38;5002555;28;20054;-68
2023/12/24 10:23:14;;;;;;;1.60;1.60;;;;;;;16.35;39.80;96398.19;4987396;28;20089;-68
2023/12/24 10:25:41;;;;;;;1.40;1.40;;;;;;;16.28;39.73;96378.72;4987232;28;20528;-68
2023/12/24 10:28:07;;;;;;;1.52;1.52;;;;;;;16.49;39.73;96467.88;4987439;28;20062;-69
2023/12/24 10:30:35;;;;;;;1.58;1.58;;;;;;;15.76;40.27;96382.31;4987847;28;20061;-67
2023/12/24 10:33:12;;;;;;;1.30;1.30;;;;;;;16.05;40.64;96468.09;4999912;28;20113;-69
2023/12/24 10:35:40;;;;;;;1.40;1.40;;;;;;;15.74;40.94;96435.81;4987133;28;20131;-68
2023/12/24 10:38:15;;;;;;;1.48;1.48;;;;;;;15.99;41.04;96441.84;4984920;28;20407;-68
2023/12/24 10:40:42;;;;;;;1.50;1.50;;;;;;;16.09;40.89;96435.28;4985488;28;20521;-68
2023/12/24 10:43:09;;;;;;;1.30;1.30;;;;;;;16.19;41.27;96451.13;4986410;28;20050;-67
2023/12/24 10:45:36;;;;;;;1.40;1.40;;;;;;;15.84;41.70;96446.03;4986593;28;20055;-67
2023/12/24 10:48:03;;;;;;;1.35;1.35;;;;;;;15.49;42.40;96440.88;4985426;28;20046;-69
2023/12/24 10:50:30;;;;;;;1.40;1.40;;;;;;;15.29;42.50;96411.19;4987005;28;20084;-67
2023/12/24 10:52:57;;;;;;;1.20;1.20;;;;;;;15.37;42.46;96437.81;4987075;28;20509;-67
2023/12/24 10:55:25;;;;;;;1.33;1.33;;;;;;;15.22;43.07;96453.94;4987461;28;20057;-68
2023/12/24 10:58:06;;;;;;;1.10;1.10;;;;;;;14.88;43.39;96391.72;4985524;28;20133;-67
2023/12/24 11:00:33;;;;;;;1.30;1.30;;;;;;;15.08;43.18;96442.88;4987092;28;20050;-67
2023/12/24 11:03:00;;;;;;;1.23;1.23;;;;;;;14.95;43.63;96462.16;4987156;28;20172;-67
2023/12/24 11:05:50;;;;;;;1.20;1.20;;;;;;;14.11;43.87;96322.75;4987711;28;20055;-70
2023/12/24 11:08:20;;;;;;;1.30;1.30;;;;;;;14.90;44.03;96470.19;4984835;28;20085;-68
2023/12/24 11:11:03;;;;;;;1.20;1.20;;;;;;;14.85;44.49;96476.19;4986991;28;20141;-68
2023/12/24 11:13:34;;;;;;;1.30;1.30;;;;;;;14.90;44.20;96459.03;4986842;28;20051;-70
2023/12/24 11:16:06;;;;;;;1.10;1.10;;;;;;;14.55;44.51;96420.31;4986523;28;20050;-68
2023/12/24 11:18:44;;;;;;;1.20;1.20;;;;;;;14.86;43.51;96458.25;4986279;28;20085;-67
2023/12/24 11:21:13;;;;;;;1.13;1.13;;;;;;;14.90;44.09;96470.19;4984996;28;20432;-68
2023/12/24 11:23:41;;;;;;;1.15;1.15;;;;;;;14.87;44.63;96460.63;4986439;28;20591;-69
2023/12/24 11:26:27;;;;;;;1.20;1.20;;;;;;;14.96;44.24;96474.09;4991440;28;20512;-69
2023/12/24 11:28:53;;;;;;;1.20;1.20;;;;;;;12.96;44.45;96200.69;4986351;28;20046;-69
2023/12/24 11:31:25;;;;;;;1.20;1.20;;;;;;;13.07;44.24;96193.09;4986194;28;20137;-67
2023/12/24 11:33:54;;;;;;;1.25;1.25;;;;;;;14.87;44.33;96479.38;4986491;28;20069;-68
2023/12/24 11:36:23;;;;;;;1.20;1.20;;;;;;;14.90;44.83;96481.34;4984578;28;20050;-69